Time;durP1;ratioP1;P1;durP2;ratioP2;P2;SDS_P1;SDS_P2;PMS_P1;PMS_P2;Temp;Humidity;BMP_temperature;BMP_pressure;BME280_temperature;BME280_humidity;BME280_pressure;Samples;Min_cycle;Max_cycle;Signal;HPM_P1;HPM_P2
2022/10/10 00:01:17;;;;;;;10.23;6.22;;;;;;;;;;5138067;27;20126;-68
2022/10/10 00:03:43;;;;;;;9.98;5.95;;;;;;;;;;5124880;27;20312;-67
2022/10/10 00:06:09;;;;;;;8.77;5.93;;;;;;;;;;5116136;27;20099;-68
2022/10/10 00:08:36;;;;;;;11.15;6.22;;;;;;;;;;5098014;27;20100;-68
2022/10/10 00:11:02;;;;;;;11.73;6.20;;;;;;;;;;5112546;27;20556;-67
2022/10/10 00:13:28;;;;;;;11.93;6.30;;;;;;;;;;5115663;27;20046;-68
2022/10/10 00:15:55;;;;;;;11.25;6.15;;;;;;;;;;5110942;27;20084;-68
2022/10/10 00:18:21;;;;;;;10.93;6.05;;;;;;;;;;5109664;28;20044;-68
2022/10/10 00:20:47;;;;;;;9.45;6.18;;;;;;;;;;5116134;27;20043;-67
2022/10/10 00:23:13;;;;;;;9.80;6.00;;;;;;;;;;5127670;27;20573;-67
2022/10/10 00:25:39;;;;;;;9.75;6.05;;;;;;;;;;5118022;27;20043;-68
2022/10/10 00:28:05;;;;;;;9.23;6.15;;;;;;;;;;5113723;27;20061;-68
2022/10/10 00:30:31;;;;;;;9.93;6.00;;;;;;;;;;5110758;27;20039;-68
2022/10/10 00:32:58;;;;;;;10.63;6.30;;;;;;;;;;5136181;27;20031;-67
2022/10/10 00:35:24;;;;;;;11.27;6.28;;;;;;;;;;5134877;27;20031;-68
2022/10/10 00:37:50;;;;;;;11.20;6.35;;;;;;;;;;5125880;27;20042;-67
2022/10/10 00:40:16;;;;;;;10.07;6.32;;;;;;;;;;5117933;27;20039;-68
2022/10/10 00:42:42;;;;;;;9.55;6.22;;;;;;;;;;5132994;27;20080;-68
2022/10/10 00:45:34;;;;;;;11.65;6.70;;;;;;;;;;5133671;27;20054;-67
2022/10/10 00:48:21;;;;;;;10.20;5.78;;;;;;;;;;5112558;27;20052;-67
2022/10/10 00:50:52;;;;;;;11.50;6.32;;;;;;;;;;5128547;27;20046;-68
2022/10/10 00:53:20;;;;;;;13.82;6.30;;;;;;;;;;5144371;27;20026;-68
2022/10/10 00:55:47;;;;;;;11.57;6.25;;;;;;;;;;5123350;27;20039;-69
2022/10/10 00:58:14;;;;;;;10.13;6.03;;;;;;;;;;5117703;28;20046;-76
2022/10/10 01:00:40;;;;;;;9.95;5.95;;;;;;;;;;5120636;27;20491;-76
2022/10/10 01:03:06;;;;;;;11.18;6.40;;;;;;;;;;5133700;27;20035;-68
2022/10/10 01:05:32;;;;;;;8.55;6.05;;;;;;;;;;5112089;27;20112;-68
2022/10/10 01:07:59;;;;;;;10.70;6.07;;;;;;;;;;5138562;27;20034;-68
2022/10/10 01:10:25;;;;;;;11.45;6.07;;;;;;;;;;5137740;27;20039;-76
2022/10/10 01:13:03;;;;;;;9.88;6.22;;;;;;;;;;5133057;27;20094;-69
2022/10/10 01:15:48;;;;;;;10.05;6.28;;;;;;;;;;5114317;28;20035;-68
2022/10/10 01:18:29;;;;;;;11.38;6.20;;;;;;;;;;5119980;28;20495;-76
2022/10/10 01:21:12;;;;;;;12.18;6.18;;;;;;;;;;5120352;27;20039;-76
2022/10/10 01:23:38;;;;;;;10.20;6.28;;;;;;;;;;5138586;27;20088;-76
2022/10/10 01:26:07;;;;;;;11.25;6.53;;;;;;;;;;5142670;27;20039;-76
2022/10/10 01:28:33;;;;;;;11.30;6.32;;;;;;;;;;5137684;27;20421;-77
2022/10/10 01:30:59;;;;;;;9.38;6.13;;;;;;;;;;5119740;27;20509;-76
2022/10/10 01:33:32;;;;;;;10.85;6.50;;;;;;;;;;5141882;27;20122;-76
2022/10/10 01:36:01;;;;;;;9.23;6.47;;;;;;;;;;5132114;27;20116;-76
2022/10/10 01:38:30;;;;;;;12.32;6.47;;;;;;;;;;5115332;28;20123;-76
2022/10/10 01:41:01;;;;;;;10.95;5.97;;;;;;;;;;5114614;28;20126;-77
2022/10/10 01:43:29;;;;;;;11.32;6.80;;;;;;;;;;5115680;27;20046;-76
2022/10/10 01:45:55;;;;;;;11.32;6.38;;;;;;;;;;5118445;27;20047;-76
2022/10/10 01:48:24;;;;;;;10.70;5.95;;;;;;;;;;5121737;27;20045;-77
2022/10/10 01:50:59;;;;;;;11.25;6.55;;;;;;;;;;5150173;27;20108;-76
2022/10/10 01:53:49;;;;;;;9.70;6.40;;;;;;;;;;5137636;27;20069;-76
2022/10/10 01:56:24;;;;;;;12.65;6.35;;;;;;;;;;5106984;27;20035;-76
2022/10/10 01:59:09;;;;;;;9.73;6.35;;;;;;;;;;5137196;27;20035;-76
2022/10/10 02:01:35;;;;;;;13.13;6.53;;;;;;;;;;5132818;27;20051;-77
2022/10/10 02:04:10;;;;;;;13.73;6.85;;;;;;;;;;5118774;27;20500;-76
2022/10/10 02:06:46;;;;;;;9.23;6.22;;;;;;;;;;5116469;27;20035;-76
2022/10/10 02:09:16;;;;;;;8.55;6.32;;;;;;;;;;5118428;27;20046;-68
2022/10/10 02:11:42;;;;;;;10.18;6.25;;;;;;;;;;5117203;27;20039;-68
2022/10/10 02:14:14;;;;;;;10.40;6.65;;;;;;;;;;5097766;28;20097;-76
2022/10/10 02:16:42;;;;;;;13.52;6.75;;;;;;;;;;5138757;27;20035;-76
2022/10/10 02:19:10;;;;;;;12.18;6.90;;;;;;;;;;5136026;27;20031;-68
2022/10/10 02:21:37;;;;;;;13.32;7.15;;;;;;;;;;5134280;27;20039;-68
2022/10/10 02:24:05;;;;;;;15.90;6.93;;;;;;;;;;5138026;27;20035;-67
2022/10/10 02:26:31;;;;;;;11.27;6.68;;;;;;;;;;5128519;27;20034;-67
2022/10/10 02:29:00;;;;;;;12.57;6.88;;;;;;;;;;5145124;27;20087;-69
2022/10/10 02:31:45;;;;;;;10.70;6.82;;;;;;;;;;5123756;27;20091;-68
2022/10/10 02:34:16;;;;;;;9.65;6.68;;;;;;;;;;5134013;27;20066;-68
2022/10/10 02:36:46;;;;;;;11.65;7.13;;;;;;;;;;5131836;27;20152;-69
2022/10/10 02:39:12;;;;;;;13.25;7.10;;;;;;;;;;5119608;27;20488;-76
2022/10/10 02:41:39;;;;;;;12.35;7.20;;;;;;;;;;5137967;27;20084;-76
2022/10/10 02:44:05;;;;;;;11.38;7.18;;;;;;;;;;5135116;27;20099;-76
2022/10/10 02:46:31;;;;;;;13.80;8.10;;;;;;;;;;5123492;27;20031;-76
2022/10/10 02:48:58;;;;;;;12.95;7.07;;;;;;;;;;5140519;27;20063;-77
2022/10/10 02:51:24;;;;;;;13.25;6.97;;;;;;;;;;5116425;27;20086;-76
2022/10/10 02:53:50;;;;;;;13.90;7.13;;;;;;;;;;5135268;27;20046;-77
2022/10/10 02:56:16;;;;;;;13.07;7.47;;;;;;;;;;5146143;27;20031;-76
2022/10/10 02:58:42;;;;;;;12.63;7.35;;;;;;;;;;5116312;27;20046;-76
2022/10/10 03:01:09;;;;;;;12.98;7.68;;;;;;;;;;5115188;27;20047;-76
2022/10/10 03:03:35;;;;;;;10.15;7.20;;;;;;;;;;5129510;27;20497;-76
2022/10/10 03:06:01;;;;;;;12.65;7.35;;;;;;;;;;5117438;27;20038;-70
2022/10/10 03:08:27;;;;;;;12.80;7.60;;;;;;;;;;5135747;27;20146;-75
2022/10/10 03:10:57;;;;;;;14.55;7.82;;;;;;;;;;5134930;27;20050;-69
2022/10/10 03:13:24;;;;;;;10.57;7.22;;;;;;;;;;5135537;27;20088;-69
2022/10/10 03:15:50;;;;;;;11.93;7.50;;;;;;;;;;5116313;27;20441;-69
2022/10/10 03:18:16;;;;;;;12.07;7.10;;;;;;;;;;5128415;27;20042;-69
2022/10/10 03:21:00;;;;;;;12.15;7.53;;;;;;;;;;5133169;27;20042;-68
2022/10/10 03:23:27;;;;;;;11.05;6.93;;;;;;;;;;5117119;27;20039;-67
2022/10/10 03:25:53;;;;;;;12.70;7.82;;;;;;;;;;5126575;27;20436;-67
2022/10/10 03:28:19;;;;;;;13.07;7.43;;;;;;;;;;5117767;27;20062;-76
2022/10/10 03:30:45;;;;;;;12.65;7.45;;;;;;;;;;5144926;27;20043;-76
2022/10/10 03:33:11;;;;;;;10.75;7.47;;;;;;;;;;5139427;27;20041;-76
2022/10/10 03:35:37;;;;;;;11.90;7.88;;;;;;;;;;5135264;27;20050;-76
2022/10/10 03:38:04;;;;;;;12.00;8.15;;;;;;;;;;5118321;27;20491;-76
2022/10/10 03:40:30;;;;;;;12.95;7.80;;;;;;;;;;5147675;27;20126;-76
2022/10/10 03:42:56;;;;;;;11.48;7.10;;;;;;;;;;5116181;27;20077;-76
2022/10/10 03:45:22;;;;;;;12.50;6.88;;;;;;;;;;5140700;27;20119;-77
2022/10/10 03:47:48;;;;;;;12.60;7.25;;;;;;;;;;5118827;27;20559;-76
2022/10/10 03:50:14;;;;;;;11.98;7.35;;;;;;;;;;5137793;27;20047;-76
2022/10/10 03:52:40;;;;;;;10.30;7.40;;;;;;;;;;5133990;27;20043;-69
2022/10/10 03:55:06;;;;;;;12.75;7.90;;;;;;;;;;5117764;27;20084;-69
2022/10/10 03:57:33;;;;;;;13.73;7.72;;;;;;;;;;5101196;28;20123;-68
2022/10/10 03:59:59;;;;;;;14.25;7.90;;;;;;;;;;5116176;27;20047;-68
2022/10/10 04:02:25;;;;;;;11.52;7.72;;;;;;;;;;5113643;27;20050;-68
2022/10/10 04:04:51;;;;;;;13.13;7.95;;;;;;;;;;5137759;27;20027;-76
2022/10/10 04:07:17;;;;;;;10.57;7.53;;;;;;;;;;5142964;27;20039;-77
2022/10/10 04:09:43;;;;;;;12.05;7.68;;;;;;;;;;5099598;27;20050;-77
2022/10/10 04:12:09;;;;;;;15.50;8.13;;;;;;;;;;5133376;27;20095;-76
2022/10/10 04:14:35;;;;;;;12.48;7.35;;;;;;;;;;5133165;27;20074;-76
2022/10/10 04:17:01;;;;;;;11.75;7.25;;;;;;;;;;5139006;27;20041;-76
2022/10/10 04:19:27;;;;;;;12.25;7.78;;;;;;;;;;5123691;27;20062;-76
2022/10/10 04:21:54;;;;;;;13.35;7.45;;;;;;;;;;5119842;27;20164;-77
2022/10/10 04:24:20;;;;;;;13.23;7.57;;;;;;;;;;5114589;27;20035;-77
2022/10/10 04:26:46;;;;;;;11.68;7.80;;;;;;;;;;5114947;28;20051;-76
2022/10/10 04:29:12;;;;;;;11.93;8.15;;;;;;;;;;5133106;27;20031;-76
2022/10/10 04:31:38;;;;;;;14.40;7.80;;;;;;;;;;5138121;27;20042;-77
2022/10/10 04:34:04;;;;;;;12.30;7.75;;;;;;;;;;5134334;27;20492;-76
2022/10/10 04:36:30;;;;;;;10.30;7.38;;;;;;;;;;5124934;27;20429;-76
2022/10/10 04:38:56;;;;;;;13.02;8.23;;;;;;;;;;5115330;28;20449;-76
2022/10/10 04:41:22;;;;;;;11.93;7.55;;;;;;;;;;5107362;27;20079;-77
2022/10/10 04:43:48;;;;;;;14.88;7.90;;;;;;;;;;5117734;27;20277;-76
2022/10/10 04:46:15;;;;;;;15.68;8.02;;;;;;;;;;5134500;27;20061;-76
2022/10/10 04:48:41;;;;;;;16.27;8.50;;;;;;;;;;5114109;28;20039;-76
2022/10/10 04:51:07;;;;;;;13.70;8.88;;;;;;;;;;5135748;27;20158;-76
2022/10/10 04:53:33;;;;;;;12.13;8.23;;;;;;;;;;5115518;28;20037;-76
2022/10/10 04:55:59;;;;;;;12.82;7.95;;;;;;;;;;5134067;27;20035;-76
2022/10/10 04:58:25;;;;;;;15.32;8.55;;;;;;;;;;5132786;28;20035;-77
2022/10/10 05:00:55;;;;;;;15.80;8.80;;;;;;;;;;5098581;28;20491;-77
2022/10/10 05:03:22;;;;;;;15.23;8.57;;;;;;;;;;5133505;27;20046;-76
2022/10/10 05:05:48;;;;;;;13.52;8.30;;;;;;;;;;5133406;27;20039;-76
2022/10/10 05:08:14;;;;;;;17.63;8.77;;;;;;;;;;5133399;28;20035;-76
2022/10/10 05:10:40;;;;;;;13.75;9.13;;;;;;;;;;5133890;27;20055;-76
2022/10/10 05:13:07;;;;;;;13.27;8.55;;;;;;;;;;5115814;27;20515;-76
2022/10/10 05:15:34;;;;;;;13.05;8.50;;;;;;;;;;5132722;27;20035;-76
2022/10/10 05:18:00;;;;;;;15.57;9.32;;;;;;;;;;5114416;28;20031;-77
2022/10/10 05:20:27;;;;;;;13.65;8.77;;;;;;;;;;5132410;27;20072;-76
2022/10/10 05:22:53;;;;;;;16.88;9.50;;;;;;;;;;5133638;27;20045;-77
2022/10/10 05:25:19;;;;;;;13.35;8.98;;;;;;;;;;5133141;27;20047;-67
2022/10/10 05:27:45;;;;;;;15.93;9.20;;;;;;;;;;5147840;27;20039;-68
2022/10/10 05:30:11;;;;;;;15.55;9.00;;;;;;;;;;5136456;27;20495;-76
2022/10/10 05:32:37;;;;;;;14.05;9.32;;;;;;;;;;5146755;27;20114;-76
2022/10/10 05:35:04;;;;;;;14.40;8.98;;;;;;;;;;5136700;27;20039;-76
2022/10/10 05:37:30;;;;;;;13.05;8.98;;;;;;;;;;5113972;27;20172;-76
2022/10/10 05:39:56;;;;;;;16.25;9.10;;;;;;;;;;5135707;27;20043;-69
2022/10/10 05:42:23;;;;;;;12.63;9.10;;;;;;;;;;5118112;27;20369;-67
2022/10/10 05:44:49;;;;;;;18.00;9.25;;;;;;;;;;5136660;27;20437;-67
2022/10/10 05:47:19;;;;;;;16.55;9.50;;;;;;;;;;5136144;27;20503;-68
2022/10/10 05:49:45;;;;;;;15.05;8.98;;;;;;;;;;5138352;27;20505;-68
2022/10/10 05:52:11;;;;;;;14.35;8.68;;;;;;;;;;5127136;27;20043;-76
2022/10/10 05:54:38;;;;;;;18.98;9.30;;;;;;;;;;5117797;27;20479;-77
2022/10/10 05:57:04;;;;;;;14.68;9.02;;;;;;;;;;5137250;27;20111;-77
2022/10/10 05:59:30;;;;;;;15.82;8.70;;;;;;;;;;5120194;27;20034;-76
2022/10/10 06:01:56;;;;;;;15.93;8.82;;;;;;;;;;5123987;27;20043;-76
2022/10/10 06:04:23;;;;;;;15.40;9.15;;;;;;;;;;5142857;27;20045;-76
2022/10/10 06:06:49;;;;;;;15.52;9.98;;;;;;;;;;5131203;27;20040;-77
2022/10/10 06:09:16;;;;;;;14.82;9.32;;;;;;;;;;5109368;27;20516;-76
2022/10/10 06:11:42;;;;;;;15.68;9.25;;;;;;;;;;5119539;27;20045;-76
2022/10/10 06:14:08;;;;;;;16.85;9.65;;;;;;;;;;5136010;27;20483;-77
2022/10/10 06:16:35;;;;;;;15.13;9.75;;;;;;;;;;5146297;27;20038;-75
2022/10/10 06:19:02;;;;;;;15.48;9.00;;;;;;;;;;5112448;27;20044;-76
2022/10/10 06:21:28;;;;;;;15.30;8.63;;;;;;;;;;5124722;27;20070;-76
2022/10/10 06:23:54;;;;;;;14.20;8.75;;;;;;;;;;5129740;27;20506;-76
2022/10/10 06:26:20;;;;;;;11.38;8.02;;;;;;;;;;5137506;27;20031;-77
2022/10/10 06:28:46;;;;;;;14.57;8.38;;;;;;;;;;5134561;27;20050;-77
2022/10/10 06:31:13;;;;;;;11.35;7.80;;;;;;;;;;5135345;27;20035;-67
2022/10/10 06:33:42;;;;;;;12.30;7.60;;;;;;;;;;5134695;27;20035;-67
2022/10/10 06:36:08;;;;;;;10.23;7.05;;;;;;;;;;5121983;27;20039;-68
2022/10/10 06:38:38;;;;;;;10.88;7.15;;;;;;;;;;5125830;27;20033;-68
2022/10/10 06:41:05;;;;;;;18.05;7.20;;;;;;;;;;5117752;27;20031;-68
2022/10/10 06:43:31;;;;;;;12.02;6.78;;;;;;;;;;5116849;27;20495;-68
2022/10/10 06:45:58;;;;;;;13.75;7.38;;;;;;;;;;5134659;27;20038;-68
2022/10/10 06:48:25;;;;;;;10.85;7.35;;;;;;;;;;5135260;27;20114;-68
2022/10/10 06:51:01;;;;;;;11.95;7.47;;;;;;;;;;5134442;27;20054;-68
2022/10/10 06:53:28;;;;;;;13.93;7.70;;;;;;;;;;5126972;27;20384;-69
2022/10/10 06:55:54;;;;;;;13.10;7.32;;;;;;;;;;5108728;27;20568;-68
2022/10/10 06:58:24;;;;;;;9.30;6.70;;;;;;;;;;5102631;28;20140;-68
2022/10/10 07:00:55;;;;;;;12.05;7.28;;;;;;;;;;5103628;27;20456;-68
2022/10/10 07:03:21;;;;;;;10.57;7.07;;;;;;;;;;5088371;27;20043;-67
2022/10/10 07:05:51;;;;;;;8.40;6.13;;;;;;;;;;5118688;27;20488;-68
2022/10/10 07:08:18;;;;;;;13.18;6.80;;;;;;;;;;5107809;27;20517;-68
2022/10/10 07:10:44;;;;;;;12.65;6.75;;;;;;;;;;5119892;27;20039;-68
2022/10/10 07:13:10;;;;;;;9.95;5.90;;;;;;;;;;5124828;27;20050;-68
2022/10/10 07:15:36;;;;;;;10.45;6.63;;;;;;;;;;5131744;27;20027;-69
2022/10/10 07:18:02;;;;;;;9.73;6.13;;;;;;;;;;5107322;27;20373;-68
2022/10/10 07:20:29;;;;;;;10.63;6.18;;;;;;;;;;5131597;27;20526;-68
2022/10/10 07:22:55;;;;;;;8.73;6.10;;;;;;;;;;5105957;27;20446;-68
2022/10/10 07:25:21;;;;;;;9.48;6.28;;;;;;;;;;5113105;28;20114;-77
2022/10/10 07:27:47;;;;;;;12.30;6.43;;;;;;;;;;5108031;27;20047;-77
2022/10/10 07:30:13;;;;;;;9.52;6.05;;;;;;;;;;5120101;27;20050;-68
2022/10/10 07:32:39;;;;;;;9.00;6.07;;;;;;;;;;5113289;28;20369;-69
2022/10/10 07:35:05;;;;;;;10.18;5.82;;;;;;;;;;5113255;28;20042;-68
2022/10/10 07:37:31;;;;;;;10.73;6.47;;;;;;;;;;5098061;27;20065;-68
2022/10/10 07:39:57;;;;;;;8.23;6.10;;;;;;;;;;5094982;28;20040;-68
2022/10/10 07:42:24;;;;;;;9.80;6.18;;;;;;;;;;5095365;28;20039;-68
2022/10/10 07:44:50;;;;;;;10.52;6.40;;;;;;;;;;5085272;27;20043;-68
2022/10/10 07:47:16;;;;;;;11.80;5.85;;;;;;;;;;5131940;27;20096;-68
2022/10/10 07:49:42;;;;;;;9.15;6.00;;;;;;;;;;5126738;27;20047;-77
2022/10/10 07:52:08;;;;;;;12.43;6.63;;;;;;;;;;5112546;27;20058;-78
2022/10/10 07:54:34;;;;;;;10.13;6.20;;;;;;;;;;5116529;27;20058;-77
2022/10/10 07:57:00;;;;;;;11.18;6.68;;;;;;;;;;5099026;27;20751;-78
2022/10/10 07:59:26;;;;;;;10.70;6.47;;;;;;;;;;5096621;27;20134;-78
2022/10/10 08:01:53;;;;;;;9.32;5.97;;;;;;;;;;5115919;27;20104;-77
2022/10/10 08:04:19;;;;;;;13.82;6.20;;;;;;;;;;5098874;27;20395;-78
2022/10/10 08:06:45;;;;;;;11.30;6.10;;;;;;;;;;5106193;27;20047;-78
2022/10/10 08:09:11;;;;;;;10.75;6.18;;;;;;;;;;5127271;27;20046;-78
2022/10/10 08:11:37;;;;;;;9.93;5.95;;;;;;;;;;5124975;27;20031;-77
2022/10/10 08:14:03;;;;;;;9.15;6.00;;;;;;;;;;5107235;27;20073;-78
2022/10/10 08:16:29;;;;;;;9.48;5.95;;;;;;;;;;5104807;27;20034;-78
2022/10/10 08:18:55;;;;;;;12.25;6.40;;;;;;;;;;5117605;27;20430;-77
2022/10/10 08:21:21;;;;;;;13.15;6.57;;;;;;;;;;5118472;27;20051;-78
2022/10/10 08:23:48;;;;;;;9.43;6.22;;;;;;;;;;5146909;27;20035;-77
2022/10/10 08:26:15;;;;;;;12.50;6.28;;;;;;;;;;5116399;27;20480;-78
2022/10/10 08:28:41;;;;;;;11.35;6.70;;;;;;;;;;5138373;27;20468;-78
2022/10/10 08:31:08;;;;;;;12.43;6.70;;;;;;;;;;5114690;28;20077;-78
2022/10/10 08:33:34;;;;;;;10.15;6.22;;;;;;;;;;5113475;27;20071;-78
2022/10/10 08:36:20;;;;;;;13.25;5.88;;;;;;;;;;5114271;27;20038;-68
2022/10/10 08:38:46;;;;;;;9.15;6.03;;;;;;;;;;5098056;27;20093;-68
2022/10/10 08:41:31;;;;;;;9.98;5.75;;;;;;;;;;5136885;27;20047;-69
2022/10/10 08:44:05;;;;;;;12.05;5.55;;;;;;;;;;5131463;27;20071;-66
2022/10/10 08:46:34;;;;;;;10.63;5.90;;;;;;;;;;5108877;28;20039;-67
2022/10/10 08:49:10;;;;;;;12.60;6.13;;;;;;;;;;5114318;28;20058;-66
2022/10/10 08:51:37;;;;;;;8.82;6.00;;;;;;;;;;5126249;27;20054;-67
2022/10/10 08:54:05;;;;;;;9.15;5.30;;;;;;;;;;5128797;27;20042;-68
2022/10/10 08:56:32;;;;;;;9.73;5.30;;;;;;;;;;5138651;27;20037;-68
2022/10/10 08:59:02;;;;;;;11.45;5.40;;;;;;;;;;5142005;27;20039;-68
2022/10/10 09:01:33;;;;;;;10.10;5.53;;;;;;;;;;5138517;27;20122;-68
2022/10/10 09:04:00;;;;;;;9.05;5.47;;;;;;;;;;5118683;27;20419;-68
2022/10/10 09:06:44;;;;;;;10.13;5.50;;;;;;;;;;5138373;27;20035;-68
2022/10/10 09:09:14;;;;;;;10.70;5.57;;;;;;;;;;5122916;27;20042;-68
2022/10/10 09:11:58;;;;;;;8.95;6.05;;;;;;;;;;5137265;27;20497;-67
2022/10/10 09:14:30;;;;;;;8.93;5.60;;;;;;;;;;5144937;27;20039;-76
2022/10/10 09:17:14;;;;;;;9.35;5.60;;;;;;;;;;5126156;27;20604;-68
2022/10/10 09:19:49;;;;;;;10.02;6.18;;;;;;;;;;5143174;27;20035;-67
2022/10/10 09:22:19;;;;;;;9.20;5.80;;;;;;;;;;5136887;27;20038;-76
2022/10/10 09:24:55;;;;;;;8.95;5.65;;;;;;;;;;5141892;27;20499;-76
2022/10/10 09:27:23;;;;;;;11.80;6.22;;;;;;;;;;5143351;27;20035;-77
2022/10/10 09:30:10;;;;;;;10.52;5.88;;;;;;;;;;5140770;27;20387;-76
2022/10/10 09:32:38;;;;;;;9.45;5.97;;;;;;;;;;5135888;27;20522;-76
2022/10/10 09:35:14;;;;;;;13.02;6.53;;;;;;;;;;5136938;27;20045;-76
2022/10/10 09:37:40;;;;;;;11.00;6.32;;;;;;;;;;5118645;27;20027;-75
2022/10/10 09:40:11;;;;;;;11.88;7.15;;;;;;;;;;5118844;27;20035;-75
2022/10/10 09:42:38;;;;;;;10.75;6.72;;;;;;;;;;5128913;27;20036;-76
2022/10/10 09:45:14;;;;;;;14.68;6.90;;;;;;;;;;5109195;27;20476;-76
2022/10/10 09:47:40;;;;;;;13.07;7.18;;;;;;;;;;5120609;27;20032;-76
2022/10/10 09:50:06;;;;;;;12.43;6.80;;;;;;;;;;5127916;27;20081;-77
2022/10/10 09:52:32;;;;;;;13.88;8.10;;;;;;;;;;5091039;27;20403;-76
2022/10/10 09:55:01;;;;;;;14.63;7.18;;;;;;;;;;5109516;27;20040;-77
2022/10/10 09:57:31;;;;;;;11.60;6.85;;;;;;;;;;5141373;27;20095;-77
2022/10/10 09:59:57;;;;;;;12.77;6.82;;;;;;;;;;5135019;27;20391;-76
2022/10/10 10:02:25;;;;;;;13.30;7.70;;;;;;;;;;5148336;27;20050;-76
2022/10/10 10:04:51;;;;;;;18.17;8.55;;;;;;;;;;5101707;27;20472;-77
2022/10/10 10:07:20;;;;;;;15.95;8.30;;;;;;;;;;5107587;27;20100;-76
2022/10/10 10:09:57;;;;;;;12.60;8.20;;;;;;;;;;5129576;27;20085;-76
2022/10/10 10:12:50;;;;;;;15.77;8.15;;;;;;;;;;5138612;27;20092;-76
2022/10/10 10:15:17;;;;;;;14.20;7.93;;;;;;;;;;5122162;27;20040;-76
2022/10/10 10:17:43;;;;;;;12.80;6.80;;;;;;;;;;5102242;27;20073;-77
2022/10/10 10:20:41;;;;;;;13.57;7.53;;;;;;;;;;5130197;27;20064;-76
2022/10/10 10:23:24;;;;;;;10.77;6.40;;;;;;;;;;5085282;27;20050;-76
2022/10/10 10:26:03;;;;;;;15.43;8.38;;;;;;;;;;5115810;27;20080;-76
2022/10/10 10:28:29;;;;;;;16.88;8.57;;;;;;;;;;5121906;27;20072;-77
2022/10/10 10:30:57;;;;;;;14.10;7.95;;;;;;;;;;5132081;27;20545;-76
2022/10/10 10:33:26;;;;;;;16.10;8.05;;;;;;;;;;5133602;27;20046;-76
2022/10/10 10:35:58;;;;;;;13.82;7.90;;;;;;;;;;5104184;27;20078;-76
2022/10/10 10:38:46;;;;;;;12.88;7.03;;;;;;;;;;5115165;27;20043;-76
2022/10/10 10:41:32;;;;;;;13.13;7.03;;;;;;;;;;5130165;27;20071;-75
2022/10/10 10:44:01;;;;;;;15.70;7.97;;;;;;;;;;5117171;27;20085;-76
2022/10/10 10:46:38;;;;;;;14.02;8.05;;;;;;;;;;5108906;28;20423;-76
2022/10/10 10:49:04;;;;;;;16.08;7.53;;;;;;;;;;5129111;27;20111;-76
2022/10/10 10:51:33;;;;;;;13.82;7.38;;;;;;;;;;5129304;27;20039;-76
2022/10/10 10:54:02;;;;;;;17.23;7.80;;;;;;;;;;5130426;27;20486;-76
2022/10/10 10:56:35;;;;;;;13.95;7.55;;;;;;;;;;5098998;27;20065;-76
2022/10/10 10:59:17;;;;;;;12.32;7.55;;;;;;;;;;5138411;27;20098;-76
2022/10/10 11:01:47;;;;;;;13.85;7.65;;;;;;;;;;5114638;27;20054;-76
2022/10/10 11:04:16;;;;;;;16.70;8.20;;;;;;;;;;5135740;27;20095;-76
2022/10/10 11:06:49;;;;;;;15.45;8.50;;;;;;;;;;5148123;27;20483;-76
2022/10/10 11:09:33;;;;;;;16.02;8.13;;;;;;;;;;5124411;27;20065;-76
2022/10/10 11:12:38;;;;;;;16.23;9.35;;;;;;;;;;5103565;27;20039;-76
2022/10/10 11:15:22;;;;;;;22.02;10.40;;;;;;;;;;5101610;27;20054;-76
2022/10/10 11:17:58;;;;;;;18.85;10.07;;;;;;;;;;5135845;27;20507;-76
2022/10/10 11:20:28;;;;;;;18.70;9.65;;;;;;;;;;5100952;28;20086;-76
2022/10/10 11:23:15;;;;;;;19.23;9.65;;;;;;;;;;5116601;27;20443;-76
2022/10/10 11:25:50;;;;;;;16.75;9.60;;;;;;;;;;5138654;27;20088;-76
2022/10/10 11:28:21;;;;;;;17.42;9.23;;;;;;;;;;5143476;27;20046;-76
2022/10/10 11:30:58;;;;;;;24.65;9.68;;;;;;;;;;5142957;27;20043;-76
2022/10/10 11:33:31;;;;;;;14.90;8.88;;;;;;;;;;5115779;27;20458;-76
2022/10/10 11:35:57;;;;;;;17.38;8.70;;;;;;;;;;5118325;27;20039;-76
2022/10/10 11:38:23;;;;;;;14.25;7.95;;;;;;;;;;5120928;27;20092;-76
2022/10/10 11:40:54;;;;;;;19.95;9.02;;;;;;;;;;5119820;27;20096;-76
2022/10/10 11:43:24;;;;;;;12.75;8.27;;;;;;;;;;5098389;27;20069;-76
2022/10/10 11:45:54;;;;;;;14.05;8.13;;;;;;;;;;5136279;27;20087;-76
2022/10/10 11:48:41;;;;;;;16.05;8.45;;;;;;;;;;5126007;27;20088;-76
2022/10/10 11:51:14;;;;;;;15.88;7.88;;;;;;;;;;5134518;27;20103;-77
2022/10/10 11:53:42;;;;;;;15.07;7.90;;;;;;;;;;5137712;27;20031;-76
2022/10/10 11:56:12;;;;;;;14.35;8.35;;;;;;;;;;5135277;27;20475;-77
2022/10/10 11:58:43;;;;;;;13.27;7.07;;;;;;;;;;5135845;27;20035;-76
2022/10/10 12:01:22;;;;;;;12.95;7.78;;;;;;;;;;5121754;27;20042;-68
2022/10/10 12:03:50;;;;;;;13.77;8.40;;;;;;;;;;5133762;27;20046;-68
2022/10/10 12:06:30;;;;;;;16.50;8.18;;;;;;;;;;5133371;27;20039;-68
2022/10/10 12:09:12;;;;;;;16.33;7.72;;;;;;;;;;5137210;27;20471;-67
2022/10/10 12:11:44;;;;;;;17.77;8.27;;;;;;;;;;5133503;27;20492;-67
2022/10/10 12:14:14;;;;;;;13.60;8.00;;;;;;;;;;5098163;27;20398;-67
2022/10/10 12:16:40;;;;;;;12.75;7.95;;;;;;;;;;5142534;27;20031;-67
2022/10/10 12:19:14;;;;;;;18.67;8.73;;;;;;;;;;5113448;27;20038;-67
2022/10/10 12:22:04;;;;;;;17.63;8.75;;;;;;;;;;5126048;27;20047;-67
2022/10/10 12:24:33;;;;;;;17.40;9.00;;;;;;;;;;5099403;28;20055;-76
2022/10/10 12:26:59;;;;;;;15.00;7.82;;;;;;;;;;5128073;27;20147;-76
2022/10/10 12:29:44;;;;;;;17.75;8.20;;;;;;;;;;5143417;27;20551;-77
2022/10/10 12:32:23;;;;;;;19.67;8.43;;;;;;;;;;5137620;27;20043;-76
2022/10/10 12:34:49;;;;;;;16.90;8.88;;;;;;;;;;5132879;27;20038;-76
2022/10/10 12:37:26;;;;;;;15.85;8.65;;;;;;;;;;5116981;27;20039;-77
2022/10/10 12:40:07;;;;;;;17.95;9.90;;;;;;;;;;5141611;27;20386;-77
2022/10/10 12:42:33;;;;;;;22.80;9.38;;;;;;;;;;5133649;27;20365;-76
2022/10/10 12:44:59;;;;;;;17.30;9.35;;;;;;;;;;5133762;27;20391;-76
2022/10/10 12:47:45;;;;;;;16.05;9.75;;;;;;;;;;5111762;27;20039;-76
2022/10/10 12:50:25;;;;;;;17.67;9.88;;;;;;;;;;5097807;28;20086;-76
2022/10/10 12:52:56;;;;;;;19.10;9.73;;;;;;;;;;5114457;28;20484;-75
2022/10/10 12:55:24;;;;;;;17.88;9.30;;;;;;;;;;5109841;28;20045;-75
2022/10/10 12:57:52;;;;;;;17.05;10.70;;;;;;;;;;5098599;27;20098;-75
2022/10/10 13:00:35;;;;;;;20.60;10.70;;;;;;;;;;5121910;28;20546;-68
2022/10/10 13:03:04;;;;;;;17.75;10.10;;;;;;;;;;5117650;27;20118;-69
2022/10/10 13:05:33;;;;;;;20.05;10.73;;;;;;;;;;5106383;28;20035;-69
2022/10/10 13:08:01;;;;;;;22.42;11.05;;;;;;;;;;5126989;28;20043;-68
2022/10/10 13:10:28;;;;;;;16.98;10.15;;;;;;;;;;5095788;28;20035;-75
2022/10/10 13:13:18;;;;;;;18.63;10.43;;;;;;;;;;5103626;28;20040;-75
2022/10/10 13:15:51;;;;;;;20.13;10.38;;;;;;;;;;5093357;28;20050;-75
2022/10/10 13:18:36;;;;;;;17.05;10.43;;;;;;;;;;5095367;28;20031;-75
2022/10/10 13:21:03;;;;;;;18.60;11.00;;;;;;;;;;5146883;27;20039;-75
2022/10/10 13:23:29;;;;;;;22.55;10.38;;;;;;;;;;5134550;28;20074;-75
2022/10/10 13:25:55;;;;;;;12.00;4.50;;;;;;;;;;5147695;27;20031;-72
2022/10/10 13:28:22;;;;;;;6.95;2.85;;;;;;;;;;5119715;28;20118;-68
2022/10/10 13:30:49;;;;;;;6.43;2.20;;;;;;;;;;5136456;27;20035;-68
2022/10/10 13:33:28;;;;;;;4.25;1.60;;;;;;;;;;5102822;28;20101;-69
2022/10/10 13:36:03;;;;;;;5.53;1.30;;;;;;;;;;5125356;27;20415;-70
2022/10/10 13:38:29;;;;;;;4.63;1.15;;;;;;;;;;5131262;27;20062;-68
2022/10/10 13:40:55;;;;;;;5.93;0.88;;;;;;;;;;5092001;28;20135;-69
2022/10/10 13:43:21;;;;;;;5.10;1.00;;;;;;;;;;5088976;28;20031;-69
2022/10/10 13:45:58;;;;;;;7.15;0.90;;;;;;;;;;5118253;27;20036;-69
2022/10/10 13:48:37;;;;;;;5.05;1.30;;;;;;;;;;5115970;28;20059;-69
2022/10/10 13:51:05;;;;;;;8.23;1.27;;;;;;;;;;5103872;27;20107;-68
2022/10/10 13:53:33;;;;;;;7.40;1.15;;;;;;;;;;5104423;27;20484;-75
2022/10/10 13:56:08;;;;;;;7.65;1.30;;;;;;;;;;5102266;28;20035;-75
2022/10/10 13:58:38;;;;;;;7.30;1.80;;;;;;;;;;5108721;28;20388;-75
2022/10/10 14:01:04;;;;;;;5.53;1.20;;;;;;;;;;5103022;27;20051;-69
2022/10/10 14:03:31;;;;;;;10.52;1.23;;;;;;;;;;5110958;27;20065;-68
2022/10/10 14:05:59;;;;;;;7.65;1.15;;;;;;;;;;5097778;28;20039;-70
2022/10/10 14:08:30;;;;;;;6.47;1.40;;;;;;;;;;5104509;27;20042;-68
2022/10/10 14:11:00;;;;;;;8.75;1.58;;;;;;;;;;5110857;28;20044;-69
2022/10/10 14:13:28;;;;;;;10.98;1.80;;;;;;;;;;5103444;27;20039;-69
2022/10/10 14:16:08;;;;;;;8.80;1.70;;;;;;;;;;5123414;27;20097;-69
2022/10/10 14:18:34;;;;;;;7.32;1.33;;;;;;;;;;5117396;27;20127;-69
2022/10/10 14:21:00;;;;;;;8.15;1.20;;;;;;;;;;5119144;27;20043;-68
2022/10/10 14:23:27;;;;;;;6.90;1.27;;;;;;;;;;5138056;27;20043;-69
2022/10/10 14:25:53;;;;;;;8.32;1.60;;;;;;;;;;5120317;27;20034;-68
2022/10/10 14:28:21;;;;;;;8.57;1.50;;;;;;;;;;5119024;27;20074;-68
2022/10/10 14:30:47;;;;;;;6.60;1.25;;;;;;;;;;5141870;27;20122;-69
2022/10/10 14:33:14;;;;;;;8.27;1.60;;;;;;;;;;5116068;27;20053;-68
2022/10/10 14:35:41;;;;;;;9.18;1.90;;;;;;;;;;5138715;27;20041;-69
2022/10/10 14:38:07;;;;;;;13.10;1.70;;;;;;;;;;5099707;27;20071;-69
2022/10/10 14:40:33;;;;;;;6.13;1.45;;;;;;;;;;5135952;27;20050;-69
2022/10/10 14:43:00;;;;;;;11.35;1.65;;;;;;;;;;5116516;27;20043;-68
2022/10/10 14:45:26;;;;;;;9.25;1.65;;;;;;;;;;5136192;27;20035;-68
2022/10/10 14:47:52;;;;;;;7.28;1.55;;;;;;;;;;5116292;27;20185;-68